sensor_id;sensor_type;location;lat;lon;timestamp;P1;durP1;ratioP1;P2;durP2;ratioP2
49378;SDS011;35254;47.990;-1.608;2022-10-17T00:00:49;5.75;;;2.33;;
49378;SDS011;35254;47.990;-1.608;2022-10-17T00:03:15;5.65;;;1.98;;
49378;SDS011;35254;47.990;-1.608;2022-10-17T00:05:41;3.55;;;2.10;;
49378;SDS011;35254;47.990;-1.608;2022-10-17T00:08:09;3.70;;;2.05;;
49378;SDS011;35254;47.990;-1.608;2022-10-17T00:10:35;5.28;;;2.00;;
49378;SDS011;35254;47.990;-1.608;2022-10-17T00:13:01;1.95;;;1.75;;
49378;SDS011;35254;47.990;-1.608;2022-10-17T00:15:27;3.63;;;2.30;;
49378;SDS011;35254;47.990;-1.608;2022-10-17T00:17:53;3.45;;;1.75;;
49378;SDS011;35254;47.990;-1.608;2022-10-17T00:20:18;4.72;;;2.15;;
49378;SDS011;35254;47.990;-1.608;2022-10-17T00:22:44;7.38;;;2.30;;
49378;SDS011;35254;47.990;-1.608;2022-10-17T00:25:10;4.00;;;2.30;;
49378;SDS011;35254;47.990;-1.608;2022-10-17T00:27:36;5.93;;;2.35;;
49378;SDS011;35254;47.990;-1.608;2022-10-17T00:30:04;3.65;;;2.15;;
49378;SDS011;35254;47.990;-1.608;2022-10-17T00:32:30;3.83;;;2.40;;
49378;SDS011;35254;47.990;-1.608;2022-10-17T00:34:56;6.63;;;2.90;;
49378;SDS011;35254;47.990;-1.608;2022-10-17T00:37:22;2.95;;;1.75;;
49378;SDS011;35254;47.990;-1.608;2022-10-17T00:39:48;2.65;;;1.90;;
49378;SDS011;35254;47.990;-1.608;2022-10-17T00:42:14;2.92;;;2.05;;
49378;SDS011;35254;47.990;-1.608;2022-10-17T00:47:07;3.42;;;2.67;;
49378;SDS011;35254;47.990;-1.608;2022-10-17T00:49:37;2.30;;;2.20;;
49378;SDS011;35254;47.990;-1.608;2022-10-17T00:52:05;8.35;;;3.08;;
49378;SDS011;35254;47.990;-1.608;2022-10-17T00:54:34;4.93;;;2.47;;
49378;SDS011;35254;47.990;-1.608;2022-10-17T00:57:03;3.08;;;2.40;;
49378;SDS011;35254;47.990;-1.608;2022-10-17T00:59:31;4.07;;;2.58;;
49378;SDS011;35254;47.990;-1.608;2022-10-17T01:02:01;4.47;;;2.13;;
49378;SDS011;35254;47.990;-1.608;2022-10-17T01:04:29;2.80;;;2.03;;
49378;SDS011;35254;47.990;-1.608;2022-10-17T01:06:55;4.50;;;2.55;;
49378;SDS011;35254;47.990;-1.608;2022-10-17T01:09:21;3.05;;;2.08;;
49378;SDS011;35254;47.990;-1.608;2022-10-17T01:14:42;4.10;;;2.20;;
49378;SDS011;35254;47.990;-1.608;2022-10-17T01:19:49;4.47;;;2.15;;
49378;SDS011;35254;47.990;-1.608;2022-10-17T01:22:36;2.30;;;2.10;;
49378;SDS011;35254;47.990;-1.608;2022-10-17T01:25:15;2.42;;;2.22;;
49378;SDS011;35254;47.990;-1.608;2022-10-17T01:30:52;1.92;;;1.67;;
49378;SDS011;35254;47.990;-1.608;2022-10-17T01:33:33;5.47;;;2.25;;
49378;SDS011;35254;47.990;-1.608;2022-10-17T01:38:56;2.22;;;2.03;;
49378;SDS011;35254;47.990;-1.608;2022-10-17T01:44:02;4.10;;;2.35;;
49378;SDS011;35254;47.990;-1.608;2022-10-17T01:46:38;3.80;;;2.55;;
49378;SDS011;35254;47.990;-1.608;2022-10-17T01:49:08;3.50;;;2.20;;
49378;SDS011;35254;47.990;-1.608;2022-10-17T01:51:39;3.22;;;1.92;;
49378;SDS011;35254;47.990;-1.608;2022-10-17T01:54:18;2.40;;;1.95;;
49378;SDS011;35254;47.990;-1.608;2022-10-17T01:56:50;3.65;;;2.00;;
49378;SDS011;35254;47.990;-1.608;2022-10-17T02:01:48;4.03;;;2.40;;
49378;SDS011;35254;47.990;-1.608;2022-10-17T02:04:16;3.00;;;2.15;;
49378;SDS011;35254;47.990;-1.608;2022-10-17T02:06:42;2.60;;;1.85;;
49378;SDS011;35254;47.990;-1.608;2022-10-17T02:09:15;3.10;;;2.65;;
49378;SDS011;35254;47.990;-1.608;2022-10-17T02:11:46;3.70;;;1.70;;
49378;SDS011;35254;47.990;-1.608;2022-10-17T02:14:44;3.92;;;2.45;;
49378;SDS011;35254;47.990;-1.608;2022-10-17T02:20:24;2.60;;;2.08;;
49378;SDS011;35254;47.990;-1.608;2022-10-17T02:26:10;6.85;;;3.03;;
49378;SDS011;35254;47.990;-1.608;2022-10-17T02:29:04;4.45;;;2.30;;
49378;SDS011;35254;47.990;-1.608;2022-10-17T02:32:02;5.33;;;2.00;;
49378;SDS011;35254;47.990;-1.608;2022-10-17T02:34:48;2.70;;;2.00;;
49378;SDS011;35254;47.990;-1.608;2022-10-17T02:37:18;3.95;;;2.25;;
49378;SDS011;35254;47.990;-1.608;2022-10-17T02:42:14;2.00;;;1.90;;
49378;SDS011;35254;47.990;-1.608;2022-10-17T02:44:42;2.78;;;2.10;;
49378;SDS011;35254;47.990;-1.608;2022-10-17T02:47:20;3.95;;;2.15;;
49378;SDS011;35254;47.990;-1.608;2022-10-17T02:49:52;7.40;;;2.85;;
49378;SDS011;35254;47.990;-1.608;2022-10-17T02:57:50;3.53;;;2.40;;
49378;SDS011;35254;47.990;-1.608;2022-10-17T03:00:19;3.92;;;2.00;;
49378;SDS011;35254;47.990;-1.608;2022-10-17T03:02:47;3.30;;;2.30;;
49378;SDS011;35254;47.990;-1.608;2022-10-17T03:05:16;2.80;;;1.73;;
49378;SDS011;35254;47.990;-1.608;2022-10-17T03:07:43;2.65;;;2.08;;
49378;SDS011;35254;47.990;-1.608;2022-10-17T03:10:09;4.40;;;1.60;;
49378;SDS011;35254;47.990;-1.608;2022-10-17T03:12:35;3.45;;;2.20;;
49378;SDS011;35254;47.990;-1.608;2022-10-17T03:15:00;2.97;;;2.13;;
49378;SDS011;35254;47.990;-1.608;2022-10-17T03:17:26;3.95;;;1.73;;
49378;SDS011;35254;47.990;-1.608;2022-10-17T03:19:52;3.70;;;2.22;;
49378;SDS011;35254;47.990;-1.608;2022-10-17T03:22:18;3.78;;;2.38;;
49378;SDS011;35254;47.990;-1.608;2022-10-17T03:24:43;4.63;;;2.00;;
49378;SDS011;35254;47.990;-1.608;2022-10-17T03:27:09;3.30;;;2.13;;
49378;SDS011;35254;47.990;-1.608;2022-10-17T03:29:35;2.33;;;1.85;;
49378;SDS011;35254;47.990;-1.608;2022-10-17T03:32:00;2.80;;;1.60;;
49378;SDS011;35254;47.990;-1.608;2022-10-17T03:34:26;2.38;;;2.13;;
49378;SDS011;35254;47.990;-1.608;2022-10-17T03:36:51;5.90;;;2.05;;
49378;SDS011;35254;47.990;-1.608;2022-10-17T03:39:17;4.05;;;1.90;;
49378;SDS011;35254;47.990;-1.608;2022-10-17T03:41:43;3.47;;;2.60;;
49378;SDS011;35254;47.990;-1.608;2022-10-17T03:44:08;5.38;;;2.30;;
49378;SDS011;35254;47.990;-1.608;2022-10-17T03:46:34;2.72;;;2.05;;
49378;SDS011;35254;47.990;-1.608;2022-10-17T03:49:00;4.65;;;1.75;;
49378;SDS011;35254;47.990;-1.608;2022-10-17T03:51:25;2.10;;;1.77;;
49378;SDS011;35254;47.990;-1.608;2022-10-17T03:53:51;3.17;;;1.90;;
49378;SDS011;35254;47.990;-1.608;2022-10-17T03:56:26;2.72;;;1.95;;
49378;SDS011;35254;47.990;-1.608;2022-10-17T03:58:52;7.07;;;1.85;;
49378;SDS011;35254;47.990;-1.608;2022-10-17T04:01:19;2.58;;;1.75;;
49378;SDS011;35254;47.990;-1.608;2022-10-17T04:03:49;3.20;;;2.00;;
49378;SDS011;35254;47.990;-1.608;2022-10-17T04:06:17;2.83;;;2.47;;
49378;SDS011;35254;47.990;-1.608;2022-10-17T04:08:43;3.47;;;1.85;;
49378;SDS011;35254;47.990;-1.608;2022-10-17T04:11:09;3.25;;;2.00;;
49378;SDS011;35254;47.990;-1.608;2022-10-17T04:13:38;1.98;;;1.80;;
49378;SDS011;35254;47.990;-1.608;2022-10-17T04:16:04;3.67;;;2.40;;
49378;SDS011;35254;47.990;-1.608;2022-10-17T04:18:32;2.78;;;1.90;;
49378;SDS011;35254;47.990;-1.608;2022-10-17T04:21:01;3.25;;;1.80;;
49378;SDS011;35254;47.990;-1.608;2022-10-17T04:23:28;2.45;;;1.83;;
49378;SDS011;35254;47.990;-1.608;2022-10-17T04:25:57;2.70;;;1.65;;
49378;SDS011;35254;47.990;-1.608;2022-10-17T04:28:24;4.47;;;2.63;;
49378;SDS011;35254;47.990;-1.608;2022-10-17T04:33:22;3.28;;;2.10;;
49378;SDS011;35254;47.990;-1.608;2022-10-17T04:35:58;5.20;;;1.85;;
49378;SDS011;35254;47.990;-1.608;2022-10-17T04:38:25;2.30;;;2.10;;
49378;SDS011;35254;47.990;-1.608;2022-10-17T04:40:52;2.78;;;1.80;;
49378;SDS011;35254;47.990;-1.608;2022-10-17T04:43:18;2.03;;;1.88;;
49378;SDS011;35254;47.990;-1.608;2022-10-17T04:45:43;2.78;;;2.05;;
49378;SDS011;35254;47.990;-1.608;2022-10-17T04:48:09;1.98;;;1.70;;
49378;SDS011;35254;47.990;-1.608;2022-10-17T04:50:35;2.25;;;1.40;;
49378;SDS011;35254;47.990;-1.608;2022-10-17T04:53:00;3.88;;;1.90;;
49378;SDS011;35254;47.990;-1.608;2022-10-17T04:55:26;3.22;;;2.30;;
49378;SDS011;35254;47.990;-1.608;2022-10-17T04:57:52;3.45;;;2.38;;
49378;SDS011;35254;47.990;-1.608;2022-10-17T05:00:17;4.32;;;2.20;;
49378;SDS011;35254;47.990;-1.608;2022-10-17T05:02:43;8.07;;;3.10;;
49378;SDS011;35254;47.990;-1.608;2022-10-17T05:05:08;4.57;;;1.95;;
49378;SDS011;35254;47.990;-1.608;2022-10-17T05:07:34;5.25;;;2.03;;
49378;SDS011;35254;47.990;-1.608;2022-10-17T05:10:04;5.05;;;1.95;;
49378;SDS011;35254;47.990;-1.608;2022-10-17T05:12:30;2.40;;;1.92;;
49378;SDS011;35254;47.990;-1.608;2022-10-17T05:14:56;2.67;;;1.60;;
49378;SDS011;35254;47.990;-1.608;2022-10-17T05:17:22;4.88;;;1.83;;
49378;SDS011;35254;47.990;-1.608;2022-10-17T05:19:48;6.18;;;1.70;;
49378;SDS011;35254;47.990;-1.608;2022-10-17T05:22:14;1.92;;;1.60;;
49378;SDS011;35254;47.990;-1.608;2022-10-17T05:24:39;4.63;;;1.83;;
49378;SDS011;35254;47.990;-1.608;2022-10-17T05:27:05;4.95;;;2.47;;
49378;SDS011;35254;47.990;-1.608;2022-10-17T05:29:31;3.47;;;1.80;;
49378;SDS011;35254;47.990;-1.608;2022-10-17T05:31:56;2.85;;;1.83;;
49378;SDS011;35254;47.990;-1.608;2022-10-17T05:34:22;5.10;;;2.00;;
49378;SDS011;35254;47.990;-1.608;2022-10-17T05:36:49;7.20;;;1.88;;
49378;SDS011;35254;47.990;-1.608;2022-10-17T05:39:14;2.80;;;1.77;;
49378;SDS011;35254;47.990;-1.608;2022-10-17T05:41:43;1.92;;;1.60;;
49378;SDS011;35254;47.990;-1.608;2022-10-17T05:44:10;3.83;;;1.90;;
49378;SDS011;35254;47.990;-1.608;2022-10-17T05:46:36;6.28;;;2.08;;
49378;SDS011;35254;47.990;-1.608;2022-10-17T05:49:01;4.15;;;1.75;;
49378;SDS011;35254;47.990;-1.608;2022-10-17T05:51:27;3.47;;;1.58;;
49378;SDS011;35254;47.990;-1.608;2022-10-17T05:53:53;10.25;;;1.98;;
49378;SDS011;35254;47.990;-1.608;2022-10-17T05:56:18;2.78;;;1.63;;
49378;SDS011;35254;47.990;-1.608;2022-10-17T05:58:44;4.82;;;1.75;;
49378;SDS011;35254;47.990;-1.608;2022-10-17T06:01:11;8.00;;;1.77;;
49378;SDS011;35254;47.990;-1.608;2022-10-17T06:03:37;2.47;;;1.67;;
49378;SDS011;35254;47.990;-1.608;2022-10-17T06:06:07;3.90;;;2.15;;
49378;SDS011;35254;47.990;-1.608;2022-10-17T06:08:37;7.20;;;1.92;;
49378;SDS011;35254;47.990;-1.608;2022-10-17T06:11:03;7.18;;;1.35;;
49378;SDS011;35254;47.990;-1.608;2022-10-17T06:13:29;8.63;;;2.53;;
49378;SDS011;35254;47.990;-1.608;2022-10-17T06:15:54;2.92;;;1.52;;
49378;SDS011;35254;47.990;-1.608;2022-10-17T06:18:20;5.72;;;1.38;;
49378;SDS011;35254;47.990;-1.608;2022-10-17T06:20:46;4.53;;;1.95;;
49378;SDS011;35254;47.990;-1.608;2022-10-17T06:23:12;7.22;;;1.42;;
49378;SDS011;35254;47.990;-1.608;2022-10-17T06:25:37;6.55;;;1.88;;
49378;SDS011;35254;47.990;-1.608;2022-10-17T06:28:03;3.63;;;1.90;;
49378;SDS011;35254;47.990;-1.608;2022-10-17T06:30:29;8.68;;;1.90;;
49378;SDS011;35254;47.990;-1.608;2022-10-17T06:32:55;9.70;;;1.67;;
49378;SDS011;35254;47.990;-1.608;2022-10-17T06:35:21;9.30;;;2.05;;
49378;SDS011;35254;47.990;-1.608;2022-10-17T06:37:46;7.22;;;2.17;;
49378;SDS011;35254;47.990;-1.608;2022-10-17T06:40:12;5.35;;;2.03;;
49378;SDS011;35254;47.990;-1.608;2022-10-17T06:42:39;5.43;;;1.67;;
49378;SDS011;35254;47.990;-1.608;2022-10-17T06:45:05;5.63;;;1.75;;
49378;SDS011;35254;47.990;-1.608;2022-10-17T06:47:32;5.50;;;1.73;;
49378;SDS011;35254;47.990;-1.608;2022-10-17T06:49:58;9.77;;;2.10;;
49378;SDS011;35254;47.990;-1.608;2022-10-17T06:52:23;7.82;;;1.40;;
49378;SDS011;35254;47.990;-1.608;2022-10-17T06:54:49;3.97;;;1.88;;
49378;SDS011;35254;47.990;-1.608;2022-10-17T06:57:16;6.90;;;1.98;;
49378;SDS011;35254;47.990;-1.608;2022-10-17T06:59:42;8.60;;;2.25;;
49378;SDS011;35254;47.990;-1.608;2022-10-17T07:02:10;9.00;;;1.45;;
49378;SDS011;35254;47.990;-1.608;2022-10-17T07:04:36;3.40;;;1.55;;
49378;SDS011;35254;47.990;-1.608;2022-10-17T07:07:02;4.72;;;1.67;;
49378;SDS011;35254;47.990;-1.608;2022-10-17T07:09:29;7.50;;;1.95;;
49378;SDS011;35254;47.990;-1.608;2022-10-17T07:11:55;2.78;;;1.30;;
49378;SDS011;35254;47.990;-1.608;2022-10-17T07:14:21;2.92;;;1.40;;
49378;SDS011;35254;47.990;-1.608;2022-10-17T07:16:47;2.63;;;1.38;;
49378;SDS011;35254;47.990;-1.608;2022-10-17T07:19:13;2.15;;;1.00;;
49378;SDS011;35254;47.990;-1.608;2022-10-17T07:21:38;2.63;;;1.40;;
49378;SDS011;35254;47.990;-1.608;2022-10-17T07:24:04;3.97;;;1.40;;
49378;SDS011;35254;47.990;-1.608;2022-10-17T07:26:31;2.78;;;1.80;;
49378;SDS011;35254;47.990;-1.608;2022-10-17T07:28:57;4.85;;;1.20;;
49378;SDS011;35254;47.990;-1.608;2022-10-17T07:31:23;6.50;;;1.65;;
49378;SDS011;35254;47.990;-1.608;2022-10-17T07:33:49;5.45;;;1.60;;
49378;SDS011;35254;47.990;-1.608;2022-10-17T07:36:15;5.70;;;3.00;;
49378;SDS011;35254;47.990;-1.608;2022-10-17T07:38:42;4.75;;;1.38;;
49378;SDS011;35254;47.990;-1.608;2022-10-17T07:41:08;3.35;;;1.42;;
49378;SDS011;35254;47.990;-1.608;2022-10-17T07:43:35;3.08;;;1.25;;
49378;SDS011;35254;47.990;-1.608;2022-10-17T07:46:03;7.82;;;1.52;;
49378;SDS011;35254;47.990;-1.608;2022-10-17T07:48:30;2.75;;;1.40;;
49378;SDS011;35254;47.990;-1.608;2022-10-17T07:50:55;4.03;;;1.20;;
49378;SDS011;35254;47.990;-1.608;2022-10-17T07:53:21;2.88;;;1.55;;
49378;SDS011;35254;47.990;-1.608;2022-10-17T07:55:47;2.67;;;1.08;;
49378;SDS011;35254;47.990;-1.608;2022-10-17T07:58:13;7.90;;;1.58;;
49378;SDS011;35254;47.990;-1.608;2022-10-17T08:00:39;4.72;;;1.35;;
49378;SDS011;35254;47.990;-1.608;2022-10-17T08:03:05;3.70;;;1.83;;
49378;SDS011;35254;47.990;-1.608;2022-10-17T08:05:31;4.38;;;2.45;;
49378;SDS011;35254;47.990;-1.608;2022-10-17T08:07:58;3.28;;;1.95;;
49378;SDS011;35254;47.990;-1.608;2022-10-17T08:10:23;5.40;;;1.45;;
49378;SDS011;35254;47.990;-1.608;2022-10-17T08:12:52;1.30;;;0.88;;
49378;SDS011;35254;47.990;-1.608;2022-10-17T08:15:18;3.97;;;1.10;;
49378;SDS011;35254;47.990;-1.608;2022-10-17T08:17:44;4.80;;;1.17;;
49378;SDS011;35254;47.990;-1.608;2022-10-17T08:20:10;10.07;;;1.35;;
49378;SDS011;35254;47.990;-1.608;2022-10-17T08:22:36;3.20;;;1.10;;
49378;SDS011;35254;47.990;-1.608;2022-10-17T08:25:02;2.25;;;1.48;;
49378;SDS011;35254;47.990;-1.608;2022-10-17T08:27:28;3.25;;;1.13;;
49378;SDS011;35254;47.990;-1.608;2022-10-17T08:29:53;4.97;;;1.48;;
49378;SDS011;35254;47.990;-1.608;2022-10-17T08:32:19;5.03;;;1.13;;
49378;SDS011;35254;47.990;-1.608;2022-10-17T08:34:47;4.00;;;1.50;;
49378;SDS011;35254;47.990;-1.608;2022-10-17T08:37:13;3.30;;;1.17;;
49378;SDS011;35254;47.990;-1.608;2022-10-17T08:39:39;4.57;;;1.30;;
49378;SDS011;35254;47.990;-1.608;2022-10-17T08:48:01;3.60;;;1.23;;
49378;SDS011;35254;47.990;-1.608;2022-10-17T08:50:32;1.73;;;0.90;;
49378;SDS011;35254;47.990;-1.608;2022-10-17T08:55:43;1.92;;;0.90;;
49378;SDS011;35254;47.990;-1.608;2022-10-17T08:58:33;3.92;;;1.60;;
49378;SDS011;35254;47.990;-1.608;2022-10-17T09:14:48;2.33;;;0.80;;
49378;SDS011;35254;47.990;-1.608;2022-10-17T09:20:16;2.70;;;1.23;;
49378;SDS011;35254;47.990;-1.608;2022-10-17T09:23:32;5.43;;;0.90;;
49378;SDS011;35254;47.990;-1.608;2022-10-17T09:25:43;3.15;;;0.93;;
49378;SDS011;35254;47.990;-1.608;2022-10-17T09:28:18;2.58;;;1.58;;
49378;SDS011;35254;47.990;-1.608;2022-10-17T09:33:55;3.80;;;1.00;;
49378;SDS011;35254;47.990;-1.608;2022-10-17T09:39:00;3.83;;;0.75;;
49378;SDS011;35254;47.990;-1.608;2022-10-17T09:41:39;3.77;;;0.90;;
49378;SDS011;35254;47.990;-1.608;2022-10-17T09:49:28;2.05;;;1.10;;
49378;SDS011;35254;47.990;-1.608;2022-10-17T09:51:57;2.05;;;1.08;;
49378;SDS011;35254;47.990;-1.608;2022-10-17T09:54:27;1.33;;;0.70;;
49378;SDS011;35254;47.990;-1.608;2022-10-17T09:57:04;0.93;;;0.90;;
49378;SDS011;35254;47.990;-1.608;2022-10-17T09:59:32;2.15;;;0.75;;
49378;SDS011;35254;47.990;-1.608;2022-10-17T10:02:07;3.55;;;0.80;;
49378;SDS011;35254;47.990;-1.608;2022-10-17T10:04:33;5.78;;;1.08;;
49378;SDS011;35254;47.990;-1.608;2022-10-17T10:07:00;1.17;;;0.73;;
49378;SDS011;35254;47.990;-1.608;2022-10-17T10:09:32;2.05;;;0.77;;
49378;SDS011;35254;47.990;-1.608;2022-10-17T10:12:02;2.33;;;0.80;;
49378;SDS011;35254;47.990;-1.608;2022-10-17T10:14:32;3.08;;;1.00;;
49378;SDS011;35254;47.990;-1.608;2022-10-17T10:17:01;1.50;;;0.65;;
49378;SDS011;35254;47.990;-1.608;2022-10-17T10:19:32;1.75;;;1.00;;
49378;SDS011;35254;47.990;-1.608;2022-10-17T10:22:03;1.83;;;0.85;;
49378;SDS011;35254;47.990;-1.608;2022-10-17T10:24:31;2.67;;;0.80;;
49378;SDS011;35254;47.990;-1.608;2022-10-17T10:27:01;2.38;;;1.30;;
49378;SDS011;35254;47.990;-1.608;2022-10-17T10:29:29;1.90;;;1.15;;
49378;SDS011;35254;47.990;-1.608;2022-10-17T10:32:06;2.20;;;0.90;;
49378;SDS011;35254;47.990;-1.608;2022-10-17T10:37:43;1.20;;;1.00;;
49378;SDS011;35254;47.990;-1.608;2022-10-17T10:40:19;1.65;;;0.75;;
49378;SDS011;35254;47.990;-1.608;2022-10-17T10:42:51;1.92;;;0.80;;
49378;SDS011;35254;47.990;-1.608;2022-10-17T10:48:36;2.78;;;0.80;;
49378;SDS011;35254;47.990;-1.608;2022-10-17T10:51:14;2.42;;;0.82;;
49378;SDS011;35254;47.990;-1.608;2022-10-17T10:53:48;1.38;;;0.70;;
49378;SDS011;35254;47.990;-1.608;2022-10-17T11:09:27;2.38;;;0.82;;
49378;SDS011;35254;47.990;-1.608;2022-10-17T11:12:08;2.22;;;1.00;;
49378;SDS011;35254;47.990;-1.608;2022-10-17T11:14:44;1.00;;;0.63;;
49378;SDS011;35254;47.990;-1.608;2022-10-17T11:22:51;1.33;;;0.70;;
49378;SDS011;35254;47.990;-1.608;2022-10-17T11:25:30;0.60;;;0.60;;
49378;SDS011;35254;47.990;-1.608;2022-10-17T11:28:00;1.08;;;0.70;;
49378;SDS011;35254;47.990;-1.608;2022-10-17T11:30:27;1.42;;;0.70;;
49378;SDS011;35254;47.990;-1.608;2022-10-17T11:32:59;1.17;;;0.63;;
49378;SDS011;35254;47.990;-1.608;2022-10-17T11:35:32;1.65;;;0.75;;
49378;SDS011;35254;47.990;-1.608;2022-10-17T11:38:07;1.65;;;0.60;;
49378;SDS011;35254;47.990;-1.608;2022-10-17T11:40:39;2.72;;;0.73;;
49378;SDS011;35254;47.990;-1.608;2022-10-17T11:45:46;1.85;;;0.80;;
49378;SDS011;35254;47.990;-1.608;2022-10-17T11:48:19;0.82;;;0.50;;
49378;SDS011;35254;47.990;-1.608;2022-10-17T11:50:51;1.73;;;0.75;;
49378;SDS011;35254;47.990;-1.608;2022-10-17T11:53:27;2.30;;;0.60;;
49378;SDS011;35254;47.990;-1.608;2022-10-17T11:56:01;4.93;;;0.88;;
49378;SDS011;35254;47.990;-1.608;2022-10-17T11:58:32;1.60;;;0.52;;
49378;SDS011;35254;47.990;-1.608;2022-10-17T12:04:11;3.08;;;0.88;;
49378;SDS011;35254;47.990;-1.608;2022-10-17T12:07:04;2.25;;;0.55;;
49378;SDS011;35254;47.990;-1.608;2022-10-17T12:12:22;2.10;;;0.98;;
49378;SDS011;35254;47.990;-1.608;2022-10-17T12:14:52;4.22;;;0.65;;
49378;SDS011;35254;47.990;-1.608;2022-10-17T12:19:47;0.77;;;0.68;;
49378;SDS011;35254;47.990;-1.608;2022-10-17T12:22:17;1.75;;;0.70;;
49378;SDS011;35254;47.990;-1.608;2022-10-17T12:24:56;1.98;;;0.82;;
49378;SDS011;35254;47.990;-1.608;2022-10-17T12:27:30;1.65;;;0.73;;
49378;SDS011;35254;47.990;-1.608;2022-10-17T12:30:06;1.45;;;0.63;;
49378;SDS011;35254;47.990;-1.608;2022-10-17T12:32:52;4.43;;;1.55;;
49378;SDS011;35254;47.990;-1.608;2022-10-17T12:38:01;2.08;;;0.80;;
49378;SDS011;35254;47.990;-1.608;2022-10-17T12:40:46;2.15;;;1.40;;
49378;SDS011;35254;47.990;-1.608;2022-10-17T12:51:12;1.17;;;0.88;;
49378;SDS011;35254;47.990;-1.608;2022-10-17T12:56:50;1.73;;;0.90;;
49378;SDS011;35254;47.990;-1.608;2022-10-17T12:59:19;2.45;;;0.85;;
49378;SDS011;35254;47.990;-1.608;2022-10-17T13:01:50;2.53;;;0.50;;
49378;SDS011;35254;47.990;-1.608;2022-10-17T13:04:19;1.52;;;0.73;;
49378;SDS011;35254;47.990;-1.608;2022-10-17T13:06:47;1.17;;;0.52;;
49378;SDS011;35254;47.990;-1.608;2022-10-17T13:09:24;0.77;;;0.60;;
49378;SDS011;35254;47.990;-1.608;2022-10-17T13:11:50;1.85;;;0.98;;
49378;SDS011;35254;47.990;-1.608;2022-10-17T13:14:18;1.05;;;0.70;;
49378;SDS011;35254;47.990;-1.608;2022-10-17T13:16:52;1.20;;;0.57;;
49378;SDS011;35254;47.990;-1.608;2022-10-17T13:19:28;1.00;;;0.82;;
49378;SDS011;35254;47.990;-1.608;2022-10-17T13:22:16;3.70;;;0.75;;
49378;SDS011;35254;47.990;-1.608;2022-10-17T13:24:50;0.50;;;0.50;;
49378;SDS011;35254;47.990;-1.608;2022-10-17T13:27:25;2.80;;;0.80;;
49378;SDS011;35254;47.990;-1.608;2022-10-17T13:29:52;2.80;;;0.77;;
49378;SDS011;35254;47.990;-1.608;2022-10-17T13:32:20;1.17;;;0.77;;
49378;SDS011;35254;47.990;-1.608;2022-10-17T13:34:46;0.65;;;0.47;;
49378;SDS011;35254;47.990;-1.608;2022-10-17T13:37:35;1.70;;;0.70;;
49378;SDS011;35254;47.990;-1.608;2022-10-17T13:40:05;1.15;;;0.98;;
49378;SDS011;35254;47.990;-1.608;2022-10-17T13:42:38;2.08;;;0.70;;
49378;SDS011;35254;47.990;-1.608;2022-10-17T13:45:11;2.28;;;0.70;;
49378;SDS011;35254;47.990;-1.608;2022-10-17T13:47:42;0.77;;;0.60;;
49378;SDS011;35254;47.990;-1.608;2022-10-17T13:50:12;1.10;;;0.50;;
49378;SDS011;35254;47.990;-1.608;2022-10-17T13:52:44;4.18;;;1.80;;
49378;SDS011;35254;47.990;-1.608;2022-10-17T13:55:14;1.40;;;0.70;;
49378;SDS011;35254;47.990;-1.608;2022-10-17T13:57:43;1.77;;;0.63;;
49378;SDS011;35254;47.990;-1.608;2022-10-17T14:00:10;1.65;;;0.77;;
49378;SDS011;35254;47.990;-1.608;2022-10-17T14:02:42;1.85;;;0.65;;
49378;SDS011;35254;47.990;-1.608;2022-10-17T14:10:41;3.00;;;0.80;;
49378;SDS011;35254;47.990;-1.608;2022-10-17T14:13:00;2.45;;;0.60;;
49378;SDS011;35254;47.990;-1.608;2022-10-17T14:15:29;2.53;;;0.80;;
49378;SDS011;35254;47.990;-1.608;2022-10-17T14:17:59;3.45;;;0.85;;
49378;SDS011;35254;47.990;-1.608;2022-10-17T14:20:30;1.67;;;0.60;;
49378;SDS011;35254;47.990;-1.608;2022-10-17T14:22:57;0.90;;;0.73;;
49378;SDS011;35254;47.990;-1.608;2022-10-17T14:25:31;4.72;;;0.93;;
49378;SDS011;35254;47.990;-1.608;2022-10-17T14:28:11;2.63;;;1.15;;
49378;SDS011;35254;47.990;-1.608;2022-10-17T14:30:43;0.65;;;0.50;;
49378;SDS011;35254;47.990;-1.608;2022-10-17T14:33:17;2.47;;;1.02;;
49378;SDS011;35254;47.990;-1.608;2022-10-17T14:35:49;1.45;;;0.50;;
49378;SDS011;35254;47.990;-1.608;2022-10-17T14:41:28;1.50;;;0.73;;
49378;SDS011;35254;47.990;-1.608;2022-10-17T14:46:48;2.00;;;0.73;;
49378;SDS011;35254;47.990;-1.608;2022-10-17T14:54:39;0.73;;;0.40;;
49378;SDS011;35254;47.990;-1.608;2022-10-17T14:57:17;3.80;;;0.90;;
49378;SDS011;35254;47.990;-1.608;2022-10-17T15:00:03;2.83;;;0.70;;
49378;SDS011;35254;47.990;-1.608;2022-10-17T15:02:29;3.38;;;0.60;;
49378;SDS011;35254;47.990;-1.608;2022-10-17T15:04:54;0.90;;;0.50;;
49378;SDS011;35254;47.990;-1.608;2022-10-17T15:07:20;1.67;;;0.57;;
49378;SDS011;35254;47.990;-1.608;2022-10-17T15:09:48;1.48;;;0.52;;
49378;SDS011;35254;47.990;-1.608;2022-10-17T15:12:15;3.15;;;0.90;;
49378;SDS011;35254;47.990;-1.608;2022-10-17T15:14:43;1.40;;;0.80;;
49378;SDS011;35254;47.990;-1.608;2022-10-17T15:17:15;3.92;;;1.52;;
49378;SDS011;35254;47.990;-1.608;2022-10-17T15:19:46;1.38;;;0.68;;
49378;SDS011;35254;47.990;-1.608;2022-10-17T15:22:12;1.52;;;0.60;;
49378;SDS011;35254;47.990;-1.608;2022-10-17T15:24:40;1.52;;;0.40;;
49378;SDS011;35254;47.990;-1.608;2022-10-17T15:27:08;0.73;;;0.50;;
49378;SDS011;35254;47.990;-1.608;2022-10-17T15:29:39;1.75;;;0.60;;
49378;SDS011;35254;47.990;-1.608;2022-10-17T15:32:04;0.40;;;0.30;;
49378;SDS011;35254;47.990;-1.608;2022-10-17T15:34:30;3.28;;;0.60;;
49378;SDS011;35254;47.990;-1.608;2022-10-17T15:36:55;1.95;;;1.38;;
49378;SDS011;35254;47.990;-1.608;2022-10-17T15:39:22;1.50;;;0.47;;
49378;SDS011;35254;47.990;-1.608;2022-10-17T15:41:48;1.05;;;0.82;;
49378;SDS011;35254;47.990;-1.608;2022-10-17T15:44:13;1.52;;;0.63;;
49378;SDS011;35254;47.990;-1.608;2022-10-17T15:46:39;2.30;;;0.70;;
49378;SDS011;35254;47.990;-1.608;2022-10-17T15:49:09;4.97;;;0.63;;
49378;SDS011;35254;47.990;-1.608;2022-10-17T15:51:39;0.68;;;0.45;;
49378;SDS011;35254;47.990;-1.608;2022-10-17T15:54:05;2.17;;;1.50;;
49378;SDS011;35254;47.990;-1.608;2022-10-17T15:56:32;3.88;;;0.57;;
49378;SDS011;35254;47.990;-1.608;2022-10-17T15:59:03;2.15;;;0.80;;
49378;SDS011;35254;47.990;-1.608;2022-10-17T16:01:31;5.13;;;1.05;;
49378;SDS011;35254;47.990;-1.608;2022-10-17T16:03:58;1.65;;;0.80;;
49378;SDS011;35254;47.990;-1.608;2022-10-17T16:06:24;7.28;;;0.75;;
49378;SDS011;35254;47.990;-1.608;2022-10-17T16:08:50;7.63;;;0.88;;
49378;SDS011;35254;47.990;-1.608;2022-10-17T16:16:16;2.25;;;0.60;;
49378;SDS011;35254;47.990;-1.608;2022-10-17T16:18:41;1.70;;;0.75;;
49378;SDS011;35254;47.990;-1.608;2022-10-17T16:21:09;3.25;;;0.47;;
49378;SDS011;35254;47.990;-1.608;2022-10-17T16:23:39;4.93;;;1.20;;
49378;SDS011;35254;47.990;-1.608;2022-10-17T16:26:05;5.38;;;0.95;;
49378;SDS011;35254;47.990;-1.608;2022-10-17T16:28:31;1.23;;;0.90;;
49378;SDS011;35254;47.990;-1.608;2022-10-17T16:30:57;6.20;;;0.90;;
49378;SDS011;35254;47.990;-1.608;2022-10-17T16:33:23;1.90;;;0.85;;
49378;SDS011;35254;47.990;-1.608;2022-10-17T16:35:48;2.15;;;0.82;;
49378;SDS011;35254;47.990;-1.608;2022-10-17T16:38:14;4.85;;;0.55;;
49378;SDS011;35254;47.990;-1.608;2022-10-17T16:40:40;5.00;;;1.08;;
49378;SDS011;35254;47.990;-1.608;2022-10-17T16:43:08;12.30;;;1.75;;
49378;SDS011;35254;47.990;-1.608;2022-10-17T16:45:36;6.88;;;0.95;;
49378;SDS011;35254;47.990;-1.608;2022-10-17T16:48:02;7.25;;;0.77;;
49378;SDS011;35254;47.990;-1.608;2022-10-17T16:50:30;2.63;;;1.08;;
49378;SDS011;35254;47.990;-1.608;2022-10-17T16:53:00;4.82;;;0.60;;
49378;SDS011;35254;47.990;-1.608;2022-10-17T16:55:27;1.70;;;0.60;;
49378;SDS011;35254;47.990;-1.608;2022-10-17T16:57:53;7.57;;;0.70;;
49378;SDS011;35254;47.990;-1.608;2022-10-17T17:00:19;3.60;;;0.63;;
49378;SDS011;35254;47.990;-1.608;2022-10-17T17:02:47;2.25;;;0.85;;
49378;SDS011;35254;47.990;-1.608;2022-10-17T17:05:13;5.68;;;0.77;;
49378;SDS011;35254;47.990;-1.608;2022-10-17T17:07:39;8.23;;;1.17;;